createdAt,value
2018-02-19T00:01:35.457Z,-6.40
2018-02-19T00:04:01.681Z,-6.50
2018-02-19T00:06:27.892Z,-6.80
2018-02-19T00:08:54.118Z,-6.90
2018-02-19T00:11:20.314Z,-7.10
2018-02-19T00:13:48.465Z,-7.10
2018-02-19T00:16:15.409Z,-6.80
2018-02-19T00:18:42.382Z,-6.60
2018-02-19T00:21:08.609Z,-6.70
2018-02-19T00:23:34.801Z,-6.60
2018-02-19T00:26:01.032Z,-6.50
2018-02-19T00:28:27.253Z,-6.40
2018-02-19T00:30:53.479Z,-6.40
2018-02-19T00:33:19.782Z,-6.40
2018-02-19T00:35:46.102Z,-6.30
2018-02-19T00:38:13.024Z,-6.50
2018-02-19T00:40:40.000Z,-6.50
2018-02-19T00:43:06.198Z,-6.60
2018-02-19T00:45:33.164Z,-6.70
2018-02-19T00:47:59.365Z,-6.80
2018-02-19T00:50:25.582Z,-6.80
2018-02-19T00:52:51.809Z,-6.90
2018-02-19T00:55:17.997Z,-6.80
2018-02-19T00:57:44.216Z,-6.70
2018-02-19T01:00:10.411Z,-6.70
2018-02-19T01:02:36.658Z,-6.80
2018-02-19T01:05:03.600Z,-6.90
2018-02-19T01:07:30.556Z,-6.90
2018-02-19T01:09:57.517Z,-6.70
2018-02-19T01:12:23.714Z,-6.80
2018-02-19T01:14:50.674Z,-6.30
2018-02-19T01:17:17.618Z,-6.20
2018-02-19T01:19:44.583Z,-6.10
2018-02-19T01:22:10.788Z,-6.20
2018-02-19T01:24:37.752Z,-6.00
2018-02-19T01:27:04.054Z,-6.10
2018-02-19T01:29:30.300Z,-6.00
2018-02-19T01:31:57.233Z,-6.00
2018-02-19T01:34:23.454Z,-6.10
2018-02-19T01:36:49.656Z,-6.10
2018-02-19T01:39:15.882Z,-6.10
2018-02-19T01:41:42.085Z,-6.20
2018-02-19T01:44:08.312Z,-6.20
2018-02-19T01:46:34.528Z,-6.10
2018-02-19T01:49:01.481Z,-6.10
2018-02-19T01:51:28.417Z,-6.10
2018-02-19T01:53:55.406Z,-6.20
2018-02-19T01:56:21.620Z,-6.30
2018-02-19T01:58:47.813Z,-6.30
2018-02-19T02:01:14.049Z,-6.40
2018-02-19T02:03:41.069Z,-6.50
2018-02-19T02:06:07.293Z,-6.60
2018-02-19T02:08:33.496Z,-6.60
2018-02-19T02:10:59.730Z,-6.80
2018-02-19T02:13:25.959Z,-7.00
2018-02-19T02:15:52.188Z,-7.30
2018-02-19T02:18:18.440Z,-7.80
2018-02-19T02:20:44.685Z,-8.20
2018-02-19T02:23:10.889Z,-8.50
2018-02-19T02:25:37.112Z,-8.60
2018-02-19T02:28:03.361Z,-8.50
2018-02-19T02:30:29.574Z,-8.50
2018-02-19T02:32:55.806Z,-8.40
2018-02-19T02:35:22.000Z,-8.30
2018-02-19T02:37:48.961Z,-8.40
2018-02-19T02:40:15.254Z,-8.40
2018-02-19T02:42:41.486Z,-8.30
2018-02-19T02:45:07.713Z,-8.00
2018-02-19T02:47:33.920Z,-7.60
2018-02-19T02:50:00.147Z,-7.40
2018-02-19T02:52:26.358Z,-7.20
2018-02-19T02:54:53.319Z,-7.30
2018-02-19T02:57:19.533Z,-7.30
2018-02-19T02:59:45.771Z,-7.30
2018-02-19T03:02:11.977Z,-7.70
2018-02-19T03:04:38.204Z,-8.30
2018-02-19T03:07:04.430Z,-8.60
2018-02-19T03:09:30.633Z,-8.80
2018-02-19T03:11:57.584Z,-9.00
2018-02-19T03:14:24.525Z,-9.10
2018-02-19T03:16:50.777Z,-9.20
2018-02-19T03:19:17.716Z,-9.30
2018-02-19T03:21:44.672Z,-9.20
2018-02-19T03:24:10.895Z,-9.30
2018-02-19T03:26:37.866Z,-9.10
2018-02-19T03:29:04.120Z,-9.10
2018-02-19T03:31:30.330Z,-9.00
2018-02-19T03:33:56.548Z,-9.10
2018-02-19T03:36:22.745Z,-9.10
2018-02-19T03:38:48.969Z,-9.20
2018-02-19T03:41:15.169Z,-9.30
2018-02-19T03:43:41.398Z,-9.30
2018-02-19T03:46:07.649Z,-9.30
2018-02-19T03:48:33.869Z,-9.30
2018-02-19T03:51:00.089Z,-9.40
2018-02-19T03:53:26.288Z,-9.40
2018-02-19T03:55:52.512Z,-9.40
2018-02-19T03:58:18.721Z,-9.50
2018-02-19T04:00:45.676Z,-9.50
2018-02-19T04:03:12.650Z,-9.50
2018-02-19T04:05:38.844Z,-9.60
2018-02-19T04:08:05.837Z,-9.40
2018-02-19T04:10:32.028Z,-9.50
2018-02-19T04:12:58.985Z,-9.50
2018-02-19T04:15:25.212Z,-9.60
2018-02-19T04:17:51.429Z,-9.40
2018-02-19T04:20:18.415Z,-9.40
2018-02-19T04:22:44.613Z,-9.40
2018-02-19T04:25:11.570Z,-9.40
2018-02-19T04:27:37.765Z,-9.50
2018-02-19T04:30:04.033Z,-9.50
2018-02-19T04:32:30.224Z,-9.50
2018-02-19T04:34:56.484Z,-9.60
2018-02-19T04:37:22.734Z,-9.70
2018-02-19T04:39:48.968Z,-9.60
2018-02-19T04:42:15.193Z,-9.60
2018-02-19T04:44:44.534Z,-9.60
2018-02-19T04:47:10.798Z,-9.60
2018-02-19T04:49:37.728Z,-9.30
2018-02-19T04:52:03.949Z,-9.40
2018-02-19T04:54:30.152Z,-9.10
2018-02-19T04:56:56.465Z,-8.80
2018-02-19T04:59:22.667Z,-8.60
2018-02-19T05:01:49.669Z,-8.10
2018-02-19T05:04:15.860Z,-8.20
2018-02-19T05:06:42.993Z,-8.00
2018-02-19T05:09:09.233Z,-7.90
2018-02-19T05:11:35.449Z,-7.70
2018-02-19T05:14:02.542Z,-7.40
2018-02-19T05:16:28.761Z,-7.40
2018-02-19T05:18:54.956Z,-7.20
2018-02-19T05:21:21.921Z,-7.10
2018-02-19T05:23:48.129Z,-7.20
2018-02-19T05:26:15.089Z,-7.00
2018-02-19T05:28:42.050Z,-7.00
2018-02-19T05:31:08.318Z,-7.10
2018-02-19T05:33:34.544Z,-6.90
2018-02-19T05:36:00.916Z,-6.90
2018-02-19T05:38:27.935Z,-6.80
2018-02-19T05:40:54.189Z,-6.90
2018-02-19T05:43:20.404Z,-6.70
2018-02-19T05:45:46.606Z,-6.60
2018-02-19T05:48:12.825Z,-6.50
2018-02-19T05:50:39.045Z,-6.40
2018-02-19T05:53:05.316Z,-6.30
2018-02-19T05:55:31.561Z,-6.30
2018-02-19T05:57:57.935Z,-6.20
2018-02-19T06:00:24.154Z,-6.10
2018-02-19T06:02:50.353Z,-6.00
2018-02-19T06:05:17.433Z,-5.80
2018-02-19T06:07:43.718Z,-5.90
2018-02-19T06:10:09.923Z,-5.70
2018-02-19T06:12:36.161Z,-5.70
2018-02-19T06:15:02.357Z,-5.70
2018-02-19T06:17:28.625Z,-5.60
2018-02-19T06:19:54.896Z,-5.50
2018-02-19T06:22:21.861Z,-5.30
2018-02-19T06:24:49.380Z,-5.30
2018-02-19T06:27:16.218Z,-5.10
2018-02-19T06:29:42.436Z,-5.00
2018-02-19T06:32:08.642Z,-4.90
2018-02-19T06:34:34.868Z,-5.00
2018-02-19T06:37:01.093Z,-5.00
2018-02-19T06:39:27.388Z,-4.90
2018-02-19T06:41:53.612Z,-4.80
2018-02-19T06:44:20.594Z,-4.50
2018-02-19T06:46:46.812Z,-4.60
2018-02-19T06:49:41.355Z,-4.40
2018-02-19T06:52:07.761Z,-4.30
2018-02-19T06:54:34.129Z,-4.30
2018-02-19T06:57:00.522Z,-4.30
2018-02-19T06:59:26.950Z,-4.20
2018-02-19T07:01:53.391Z,-4.20
2018-02-19T07:04:19.770Z,-4.10
2018-02-19T07:06:46.509Z,-4.10
2018-02-19T07:09:12.952Z,-4.10
2018-02-19T07:11:39.407Z,-4.00
2018-02-19T07:14:06.610Z,-3.70
2018-02-19T07:16:32.985Z,-3.70
2018-02-19T07:18:59.379Z,-3.60
2018-02-19T07:21:25.786Z,-3.40
2018-02-19T07:23:52.198Z,-3.30
2018-02-19T07:26:19.305Z,-3.20
2018-02-19T07:28:45.705Z,-3.20
2018-02-19T07:31:12.158Z,-3.00
2018-02-19T07:33:38.571Z,-3.00
2018-02-19T07:36:05.072Z,-3.00
2018-02-19T07:38:31.439Z,-3.00
2018-02-19T07:40:57.859Z,-2.90
2018-02-19T07:43:25.093Z,-2.70
2018-02-19T07:45:51.550Z,-2.80
2018-02-19T07:48:18.750Z,-2.60
2018-02-19T07:50:45.193Z,-2.60
2018-02-19T07:53:11.630Z,-2.50
2018-02-19T07:55:38.150Z,-2.40
2018-02-19T07:58:04.607Z,-2.30
2018-02-19T08:00:31.072Z,-2.30
2018-02-19T08:02:58.243Z,-2.10
2018-02-19T08:05:24.672Z,-2.20
2018-02-19T08:07:51.140Z,-2.20
2018-02-19T08:10:17.532Z,-2.20
2018-02-19T08:12:44.651Z,-2.10
2018-02-19T08:15:11.262Z,-2.20
2018-02-19T08:17:37.646Z,-2.00
2018-02-19T08:20:04.811Z,-1.90
2018-02-19T08:22:32.026Z,-1.70
2018-02-19T08:24:58.413Z,-1.80
2018-02-19T08:27:24.826Z,-1.60
2018-02-19T08:29:51.949Z,-1.50
2018-02-19T08:32:25.316Z,-1.60
2018-02-19T08:34:51.711Z,-1.40
2018-02-19T08:37:18.166Z,-1.30
2018-02-19T08:39:44.590Z,-1.40
2018-02-19T08:42:10.970Z,-1.40
2018-02-19T08:44:37.383Z,-1.30
2018-02-19T08:47:03.767Z,-1.20
2018-02-19T08:49:30.194Z,-1.20
2018-02-19T08:51:56.600Z,-1.30
2018-02-19T08:54:23.215Z,-1.20
2018-02-19T08:56:49.618Z,-1.10
2018-02-19T08:59:16.782Z,-1.00
2018-02-19T09:01:43.951Z,-1.10
2018-02-19T09:04:10.346Z,-1.10
2018-02-19T09:06:37.500Z,-1.00
2018-02-19T09:09:04.696Z,-0.90
2018-02-19T09:11:31.102Z,-1.00
2018-02-19T09:14:01.848Z,-1.20
2018-02-19T09:16:28.385Z,-1.20
2018-02-19T09:18:54.786Z,-1.30
2018-02-19T09:21:21.176Z,-1.30
2018-02-19T09:23:47.588Z,-1.30
2018-02-19T09:26:14.093Z,-1.20
2018-02-19T09:28:40.512Z,-1.20
2018-02-19T09:31:06.924Z,-1.10
2018-02-19T09:33:33.303Z,-1.00
2018-02-19T09:36:00.449Z,-0.80
2018-02-19T09:38:27.576Z,-0.70
2018-02-19T09:40:53.994Z,-0.80
2018-02-19T09:43:20.382Z,-1.00
2018-02-19T09:45:47.539Z,-0.60
2018-02-19T09:48:14.690Z,-0.40
2018-02-19T09:50:41.815Z,-0.30
2018-02-19T09:53:08.257Z,-0.30
2018-02-19T09:55:34.651Z,0.00
2018-02-19T09:58:01.071Z,0.20
2018-02-19T10:00:27.535Z,0.30
2018-02-19T10:02:53.975Z,0.50
2018-02-19T10:05:20.417Z,0.60
2018-02-19T10:07:46.828Z,0.80
2018-02-19T10:10:13.404Z,0.90
2018-02-19T10:12:39.810Z,1.20
2018-02-19T10:15:06.209Z,0.80
2018-02-19T10:17:32.618Z,0.60
2018-02-19T10:19:59.768Z,0.70
2018-02-19T10:22:26.930Z,0.60
2018-02-19T10:24:53.326Z,0.50
2018-02-19T10:27:19.734Z,0.60
2018-02-19T10:29:45.973Z,0.70
2018-02-19T10:32:12.259Z,0.50
2018-02-19T10:34:38.605Z,0.50
2018-02-19T10:37:05.365Z,0.80
2018-02-19T10:39:31.616Z,0.90
2018-02-19T10:41:57.824Z,0.70
2018-02-19T10:44:24.358Z,0.60
2018-02-19T10:46:50.579Z,0.50
2018-02-19T10:49:16.809Z,0.30
2018-02-19T10:51:43.052Z,0.40
2018-02-19T10:54:09.381Z,0.50
2018-02-19T10:56:35.604Z,0.50
2018-02-19T10:59:01.806Z,0.30
2018-02-19T11:01:28.769Z,0.50
2018-02-19T11:03:54.968Z,0.50
2018-02-19T11:06:21.190Z,0.30
2018-02-19T11:08:47.407Z,0.40
2018-02-19T11:11:14.361Z,0.70
2018-02-19T11:13:40.592Z,0.70
2018-02-19T11:16:06.794Z,0.80
2018-02-19T11:18:33.041Z,0.70
2018-02-19T11:20:59.245Z,0.60
2018-02-19T11:23:25.499Z,0.70
2018-02-19T11:25:51.734Z,0.90
2018-02-19T11:28:17.959Z,1.00
2018-02-19T11:30:44.191Z,1.00
2018-02-19T11:33:10.389Z,1.00
2018-02-19T11:35:43.662Z,1.20
2018-02-19T11:38:10.138Z,0.90
2018-02-19T11:40:36.554Z,1.10
2018-02-19T11:43:02.929Z,1.10
2018-02-19T11:45:29.375Z,1.30
2018-02-19T11:47:56.500Z,1.30
2018-02-19T11:50:22.905Z,1.20
2018-02-19T11:52:49.315Z,1.40
2018-02-19T11:55:15.745Z,1.30
2018-02-19T11:57:42.887Z,1.10
2018-02-19T12:00:10.008Z,1.00
2018-02-19T12:02:36.414Z,0.90
2018-02-19T12:05:02.822Z,1.20
2018-02-19T12:07:29.235Z,1.30
2018-02-19T12:09:56.295Z,1.10
2018-02-19T12:12:23.734Z,1.00
2018-02-19T12:14:50.639Z,1.00
2018-02-19T12:17:16.916Z,0.90
2018-02-19T12:19:43.930Z,0.80
2018-02-19T12:22:10.127Z,0.70
2018-02-19T12:24:36.360Z,0.80
2018-02-19T12:27:02.580Z,1.10
2018-02-19T12:29:28.894Z,1.40
2018-02-19T12:31:55.851Z,1.60
2018-02-19T12:34:22.860Z,1.40
2018-02-19T12:36:49.134Z,1.30
2018-02-19T12:39:16.146Z,1.50
2018-02-19T12:41:42.437Z,1.40
2018-02-19T12:44:08.725Z,1.60
2018-02-19T12:46:35.000Z,1.60
2018-02-19T12:49:01.407Z,1.70
2018-02-19T12:51:28.689Z,1.60
2018-02-19T12:53:55.740Z,1.60
2018-02-19T12:56:22.016Z,1.40
2018-02-19T12:58:48.506Z,1.70
2018-02-19T13:01:14.824Z,2.00
2018-02-19T13:03:41.073Z,2.00
2018-02-19T13:06:07.281Z,2.00
2018-02-19T13:08:33.526Z,2.20
2018-02-19T13:10:59.805Z,1.70
2018-02-19T13:13:26.030Z,1.30
2018-02-19T13:15:52.258Z,1.00
2018-02-19T13:18:18.603Z,1.40
2018-02-19T13:20:45.585Z,1.30
2018-02-19T13:23:12.443Z,1.20
2018-02-19T13:25:38.706Z,1.10
2018-02-19T13:28:04.905Z,1.30
2018-02-19T13:30:31.187Z,0.80
2018-02-19T13:32:58.134Z,0.40
2018-02-19T13:35:26.164Z,0.40
2018-02-19T13:37:52.417Z,0.50
2018-02-19T13:40:18.642Z,0.50
2018-02-19T13:42:44.923Z,0.80
2018-02-19T13:45:11.173Z,0.70
2018-02-19T13:47:37.389Z,0.40
2018-02-19T13:50:03.630Z,0.50
2018-02-19T13:52:29.917Z,0.40
2018-02-19T13:54:56.888Z,0.20
2018-02-19T13:57:23.172Z,0.10
2018-02-19T13:59:49.397Z,0.40
2018-02-19T14:02:15.787Z,0.40
2018-02-19T14:04:42.021Z,0.10
2018-02-19T14:07:08.236Z,0.00
2018-02-19T14:09:35.210Z,0.00
2018-02-19T14:12:01.425Z,-0.10
2018-02-19T14:14:27.642Z,-0.10
2018-02-19T14:16:54.597Z,-0.10
2018-02-19T14:19:20.853Z,-0.20
2018-02-19T14:21:47.079Z,-0.20
2018-02-19T14:24:13.311Z,0.00
2018-02-19T14:26:39.532Z,0.40
2018-02-19T14:29:05.772Z,0.60
2018-02-19T14:31:31.989Z,0.80
2018-02-19T14:33:58.227Z,0.60
2018-02-19T14:36:24.454Z,0.50
2018-02-19T14:38:50.688Z,0.40
2018-02-19T14:41:16.911Z,0.20
2018-02-19T14:43:43.167Z,0.10
2018-02-19T14:46:09.377Z,0.10
2018-02-19T14:48:35.589Z,-0.10
2018-02-19T14:51:01.821Z,-0.10
2018-02-19T14:53:28.052Z,-0.20
2018-02-19T14:55:54.260Z,-0.10
2018-02-19T14:58:21.281Z,-0.20
2018-02-19T15:00:47.766Z,-0.30
2018-02-19T15:03:14.188Z,-0.20
2018-02-19T15:05:40.565Z,-0.20
2018-02-19T15:08:13.976Z,-0.20
2018-02-19T15:10:40.390Z,0.00
2018-02-19T15:13:06.757Z,-0.20
2018-02-19T15:15:33.169Z,-0.30
2018-02-19T15:17:59.619Z,-0.50
2018-02-19T15:20:26.061Z,-0.60
2018-02-19T15:22:52.499Z,-0.60
2018-02-19T15:25:18.928Z,-0.60
2018-02-19T15:27:46.072Z,-0.90
2018-02-19T15:30:12.459Z,-0.90
2018-02-19T15:32:38.870Z,-1.00
2018-02-19T15:35:05.986Z,-1.10
2018-02-19T15:37:32.418Z,-1.10
2018-02-19T15:39:58.803Z,-1.00
2018-02-19T15:42:25.219Z,-1.10
2018-02-19T15:44:52.371Z,-1.20
2018-02-19T15:47:19.515Z,-1.20
2018-02-19T15:49:46.690Z,-1.30
2018-02-19T15:52:13.070Z,-1.30
2018-02-19T15:54:39.485Z,-1.30
2018-02-19T15:57:05.870Z,-1.30
2018-02-19T15:59:33.137Z,-1.40
2018-02-19T16:02:00.278Z,-1.40
2018-02-19T16:04:27.418Z,-1.50
2018-02-19T16:06:53.823Z,-1.60
2018-02-19T16:09:20.223Z,-1.60
2018-02-19T16:11:46.687Z,-1.60
2018-02-19T16:14:13.086Z,-1.70
2018-02-19T16:16:39.509Z,-1.80
2018-02-19T16:19:05.945Z,-1.80
2018-02-19T16:21:33.170Z,-1.80
2018-02-19T16:23:59.583Z,-1.90
2018-02-19T16:26:25.990Z,-1.90
2018-02-19T16:28:52.510Z,-1.90
2018-02-19T16:31:18.901Z,-2.00
2018-02-19T16:33:46.102Z,-2.10
2018-02-19T16:36:12.484Z,-2.10
2018-02-19T16:38:38.900Z,-2.00
2018-02-19T16:41:05.315Z,-2.10
2018-02-19T16:43:32.096Z,-2.10
2018-02-19T16:45:58.668Z,-2.20
2018-02-19T16:48:25.362Z,-2.20
2018-02-19T16:50:52.138Z,-2.20
2018-02-19T16:53:20.763Z,-2.20
2018-02-19T16:55:47.547Z,-2.30
2018-02-19T16:58:15.180Z,-2.30
2018-02-19T17:00:41.733Z,-2.40
2018-02-19T17:03:08.564Z,-2.30
2018-02-19T17:05:35.534Z,-2.30
2018-02-19T17:08:02.022Z,-2.30
2018-02-19T17:10:28.911Z,-2.30
2018-02-19T17:12:55.321Z,-2.40
2018-02-19T17:15:21.742Z,-2.40
2018-02-19T17:17:48.184Z,-2.40
2018-02-19T17:20:14.607Z,-2.40
2018-02-19T17:22:41.144Z,-2.40
2018-02-19T17:25:07.564Z,-2.40
2018-02-19T17:27:34.713Z,-2.40
2018-02-19T17:30:01.867Z,-2.40
2018-02-19T17:32:29.056Z,-2.40
2018-02-19T17:34:55.538Z,-2.50
2018-02-19T17:37:21.957Z,-2.40
2018-02-19T17:39:48.361Z,-2.40
2018-02-19T17:42:14.792Z,-2.40
2018-02-19T17:44:41.222Z,-2.40
2018-02-19T17:47:07.691Z,-2.40
2018-02-19T17:49:34.151Z,-2.40
2018-02-19T17:52:00.577Z,-2.40
2018-02-19T17:54:28.963Z,-2.40
2018-02-19T17:56:56.784Z,-2.50
2018-02-19T17:59:23.226Z,-2.60
2018-02-19T18:01:49.694Z,-2.50
2018-02-19T18:04:16.147Z,-2.50
2018-02-19T18:06:43.375Z,-2.60
2018-02-19T18:09:09.956Z,-2.70
2018-02-19T18:11:36.347Z,-2.60
2018-02-19T18:14:02.780Z,-2.70
2018-02-19T18:16:29.200Z,-2.70
2018-02-19T18:18:55.701Z,-2.70
2018-02-19T18:21:22.142Z,-2.70
2018-02-19T18:23:48.587Z,-2.80
2018-02-19T18:26:20.473Z,-2.80
2018-02-19T18:28:51.688Z,-2.90
2018-02-19T18:31:21.675Z,-2.90
2018-02-19T18:33:48.878Z,-3.00
2018-02-19T18:36:15.289Z,-3.00
2018-02-19T18:38:41.746Z,-3.00
2018-02-19T18:41:08.174Z,-3.00
2018-02-19T18:43:34.592Z,-3.00
2018-02-19T18:46:00.975Z,-3.00
2018-02-19T18:48:27.406Z,-3.00
2018-02-19T18:50:53.789Z,-3.00
2018-02-19T18:53:20.197Z,-3.00
2018-02-19T18:55:47.441Z,-3.10
2018-02-19T18:58:13.837Z,-3.20
2018-02-19T19:00:40.235Z,-3.20
2018-02-19T19:03:06.678Z,-3.30
2018-02-19T19:05:33.098Z,-3.50
2018-02-19T19:08:11.857Z,-3.60
2018-02-19T19:10:51.405Z,-3.60
2018-02-19T19:13:17.942Z,-3.70
2018-02-19T19:15:44.331Z,-3.70
2018-02-19T19:18:11.579Z,-3.80
2018-02-19T19:20:38.685Z,-3.90
2018-02-19T19:23:05.108Z,-4.00
2018-02-19T19:25:31.521Z,-3.90
2018-02-19T19:27:57.925Z,-4.00
2018-02-19T19:30:25.086Z,-4.20
2018-02-19T19:32:52.214Z,-4.20
2018-02-19T19:35:19.371Z,-4.30
2018-02-19T19:37:46.546Z,-4.40
2018-02-19T19:40:12.970Z,-4.40
2018-02-19T19:42:40.087Z,-4.60
2018-02-19T19:45:06.503Z,-4.60
2018-02-19T19:47:32.966Z,-4.60
2018-02-19T19:50:00.104Z,-4.90
2018-02-19T19:52:26.485Z,-4.90
2018-02-19T19:54:53.714Z,-5.00
2018-02-19T19:57:20.095Z,-5.10
2018-02-19T19:59:46.452Z,-5.00
2018-02-19T20:02:12.722Z,-5.10
2018-02-19T20:04:39.882Z,-5.30
2018-02-19T20:07:06.353Z,-5.40
2018-02-19T20:09:32.727Z,-5.30
2018-02-19T20:11:59.166Z,-5.30
2018-02-19T20:14:25.580Z,-5.20
2018-02-19T20:16:52.018Z,-5.10
2018-02-19T20:19:18.421Z,-5.00
2018-02-19T20:21:44.807Z,-5.00
2018-02-19T20:24:11.945Z,-5.00
2018-02-19T20:26:39.090Z,-5.00
2018-02-19T20:29:05.493Z,-5.00
2018-02-19T20:31:31.883Z,-4.90
2018-02-19T20:33:59.055Z,-4.70
2018-02-19T20:36:25.458Z,-4.80
2018-02-19T20:38:52.569Z,-4.60
2018-02-19T20:41:19.090Z,-4.70
2018-02-19T20:43:45.475Z,-4.60
2018-02-19T20:46:12.633Z,-4.50
2018-02-19T20:48:39.035Z,-4.50
2018-02-19T20:51:05.450Z,-4.50
2018-02-19T20:53:31.857Z,-4.40
2018-02-19T20:55:59.026Z,-4.30
2018-02-19T20:58:25.431Z,-4.40
2018-02-19T21:00:52.592Z,-4.30
2018-02-19T21:03:19.733Z,-4.30
2018-02-19T21:05:46.912Z,-4.30
2018-02-19T21:08:13.320Z,-4.40
2018-02-19T21:10:40.480Z,-4.40
2018-02-19T21:13:07.635Z,-4.40
2018-02-19T21:15:34.790Z,-4.50
2018-02-19T21:18:01.179Z,-4.60
2018-02-19T21:20:27.583Z,-4.60
2018-02-19T21:22:53.953Z,-4.60
2018-02-19T21:25:20.374Z,-4.70
2018-02-19T21:27:46.743Z,-4.80
2018-02-19T21:30:13.886Z,-4.70
2018-02-19T21:32:41.061Z,-4.80
2018-02-19T21:35:08.241Z,-4.70
2018-02-19T21:37:34.639Z,-4.70
2018-02-19T21:40:01.902Z,-4.60
2018-02-19T21:42:28.310Z,-4.70
2018-02-19T21:44:54.693Z,-4.60
2018-02-19T21:47:21.086Z,-4.50
2018-02-19T21:49:48.216Z,-4.50
2018-02-19T21:52:15.351Z,-4.50
2018-02-19T21:54:41.748Z,-4.60
2018-02-19T21:57:08.132Z,-4.50
2018-02-19T21:59:34.535Z,-4.40
2018-02-19T22:02:00.932Z,-4.40
2018-02-19T22:04:28.092Z,-4.50
2018-02-19T22:06:54.510Z,-4.60
2018-02-19T22:09:21.678Z,-4.50
2018-02-19T22:11:48.086Z,-4.60
2018-02-19T22:14:15.200Z,-4.40
2018-02-19T22:16:41.614Z,-4.40
2018-02-19T22:19:07.995Z,-4.40
2018-02-19T22:21:34.414Z,-4.40
2018-02-19T22:24:00.806Z,-4.50
2018-02-19T22:26:27.185Z,-4.50
2018-02-19T22:28:53.614Z,-4.40
2018-02-19T22:31:19.997Z,-4.40
2018-02-19T22:33:47.135Z,-4.30
2018-02-19T22:36:14.271Z,-4.20
2018-02-19T22:38:40.670Z,-4.20
2018-02-19T22:41:07.053Z,-4.20
2018-02-19T22:43:34.199Z,-4.30
2018-02-19T22:46:00.605Z,-4.30
2018-02-19T22:48:26.992Z,-4.30
2018-02-19T22:50:53.457Z,-4.50
2018-02-19T22:53:19.850Z,-4.60
2018-02-19T22:55:47.005Z,-4.60
2018-02-19T22:58:14.163Z,-4.40
2018-02-19T23:00:40.606Z,-4.50
2018-02-19T23:03:06.975Z,-4.20
2018-02-19T23:05:33.381Z,-4.10
2018-02-19T23:07:59.754Z,-4.00
2018-02-19T23:10:26.161Z,-3.90
2018-02-19T23:12:52.586Z,-3.90
2018-02-19T23:15:18.966Z,-3.90
2018-02-19T23:17:46.106Z,-3.90
2018-02-19T23:20:12.494Z,-3.90
2018-02-19T23:22:38.885Z,-3.80
2018-02-19T23:25:06.037Z,-3.80
2018-02-19T23:27:32.449Z,-3.80
2018-02-19T23:29:58.857Z,-3.80
2018-02-19T23:32:25.249Z,-3.70
2018-02-19T23:34:52.397Z,-3.60
2018-02-19T23:37:19.529Z,-3.50
2018-02-19T23:39:45.942Z,-3.60
2018-02-19T23:42:12.318Z,-3.50
2018-02-19T23:44:38.722Z,-3.50
2018-02-19T23:47:05.103Z,-3.50
2018-02-19T23:49:32.238Z,-3.70
2018-02-19T23:51:58.730Z,-3.80
2018-02-19T23:54:34.413Z,-3.80
2018-02-19T23:57:00.779Z,-3.80
2018-02-19T23:59:27.914Z,-3.70
